sensor_id;sensor_type;location;lat;lon;timestamp;P1;durP1;ratioP1;P2;durP2;ratioP2
5060;SDS011;2549;52.128;21.068;2023-08-20T00:01:04;16.40;;;13.40;;
5060;SDS011;2549;52.128;21.068;2023-08-20T00:03:31;20.07;;;12.67;;
5060;SDS011;2549;52.128;21.068;2023-08-20T00:05:59;24.27;;;13.23;;
5060;SDS011;2549;52.128;21.068;2023-08-20T00:08:26;16.13;;;13.60;;
5060;SDS011;2549;52.128;21.068;2023-08-20T00:10:53;17.13;;;13.33;;
5060;SDS011;2549;52.128;21.068;2023-08-20T00:13:19;18.53;;;14.30;;
5060;SDS011;2549;52.128;21.068;2023-08-20T00:15:46;20.97;;;12.50;;
5060;SDS011;2549;52.128;21.068;2023-08-20T00:18:14;15.00;;;13.40;;
5060;SDS011;2549;52.128;21.068;2023-08-20T00:20:41;18.00;;;13.00;;
5060;SDS011;2549;52.128;21.068;2023-08-20T00:23:08;26.70;;;12.83;;
5060;SDS011;2549;52.128;21.068;2023-08-20T00:25:35;16.50;;;13.30;;
5060;SDS011;2549;52.128;21.068;2023-08-20T00:28:02;15.50;;;13.83;;
5060;SDS011;2549;52.128;21.068;2023-08-20T00:30:29;16.73;;;13.83;;
5060;SDS011;2549;52.128;21.068;2023-08-20T00:32:56;17.47;;;14.07;;
5060;SDS011;2549;52.128;21.068;2023-08-20T00:35:23;14.20;;;12.67;;
5060;SDS011;2549;52.128;21.068;2023-08-20T00:37:50;18.30;;;12.37;;
5060;SDS011;2549;52.128;21.068;2023-08-20T00:40:18;17.80;;;12.73;;
5060;SDS011;2549;52.128;21.068;2023-08-20T00:42:45;17.20;;;12.33;;
5060;SDS011;2549;52.128;21.068;2023-08-20T00:45:11;15.17;;;13.10;;
5060;SDS011;2549;52.128;21.068;2023-08-20T00:47:39;21.57;;;15.33;;
5060;SDS011;2549;52.128;21.068;2023-08-20T00:50:07;18.83;;;14.70;;
5060;SDS011;2549;52.128;21.068;2023-08-20T00:52:35;22.30;;;14.70;;
5060;SDS011;2549;52.128;21.068;2023-08-20T00:55:05;16.40;;;12.67;;
5060;SDS011;2549;52.128;21.068;2023-08-20T00:57:36;17.57;;;14.07;;
5060;SDS011;2549;52.128;21.068;2023-08-20T01:00:04;16.27;;;13.80;;
5060;SDS011;2549;52.128;21.068;2023-08-20T01:02:36;19.13;;;12.40;;
5060;SDS011;2549;52.128;21.068;2023-08-20T01:05:05;18.90;;;14.03;;
5060;SDS011;2549;52.128;21.068;2023-08-20T01:10:06;17.00;;;12.80;;
5060;SDS011;2549;52.128;21.068;2023-08-20T01:12:45;17.70;;;13.83;;
5060;SDS011;2549;52.128;21.068;2023-08-20T01:15:13;15.73;;;13.80;;
5060;SDS011;2549;52.128;21.068;2023-08-20T01:17:41;18.93;;;13.30;;
5060;SDS011;2549;52.128;21.068;2023-08-20T01:20:09;21.43;;;14.10;;
5060;SDS011;2549;52.128;21.068;2023-08-20T01:28:39;22.47;;;13.63;;
5060;SDS011;2549;52.128;21.068;2023-08-20T01:31:07;17.70;;;13.57;;
5060;SDS011;2549;52.128;21.068;2023-08-20T01:33:34;21.20;;;14.03;;
5060;SDS011;2549;52.128;21.068;2023-08-20T01:36:02;18.20;;;13.70;;
5060;SDS011;2549;52.128;21.068;2023-08-20T01:38:36;21.07;;;13.53;;
5060;SDS011;2549;52.128;21.068;2023-08-20T01:41:03;22.60;;;13.80;;
5060;SDS011;2549;52.128;21.068;2023-08-20T01:43:31;17.97;;;13.50;;
5060;SDS011;2549;52.128;21.068;2023-08-20T01:45:58;20.73;;;14.63;;
5060;SDS011;2549;52.128;21.068;2023-08-20T01:48:25;18.70;;;13.70;;
5060;SDS011;2549;52.128;21.068;2023-08-20T01:50:52;15.70;;;14.03;;
5060;SDS011;2549;52.128;21.068;2023-08-20T01:53:19;19.20;;;15.00;;
5060;SDS011;2549;52.128;21.068;2023-08-20T01:55:46;24.63;;;13.60;;
5060;SDS011;2549;52.128;21.068;2023-08-20T01:58:13;24.57;;;13.57;;
5060;SDS011;2549;52.128;21.068;2023-08-20T02:00:41;22.60;;;13.67;;
5060;SDS011;2549;52.128;21.068;2023-08-20T02:03:08;15.27;;;13.13;;
5060;SDS011;2549;52.128;21.068;2023-08-20T02:05:35;22.20;;;14.00;;
5060;SDS011;2549;52.128;21.068;2023-08-20T02:08:02;18.17;;;13.53;;
5060;SDS011;2549;52.128;21.068;2023-08-20T02:10:29;13.67;;;12.27;;
5060;SDS011;2549;52.128;21.068;2023-08-20T02:12:56;18.43;;;14.00;;
5060;SDS011;2549;52.128;21.068;2023-08-20T02:15:23;17.10;;;12.50;;
5060;SDS011;2549;52.128;21.068;2023-08-20T02:17:50;16.67;;;13.67;;
5060;SDS011;2549;52.128;21.068;2023-08-20T02:20:17;16.47;;;14.00;;
5060;SDS011;2549;52.128;21.068;2023-08-20T02:22:44;14.60;;;12.97;;
5060;SDS011;2549;52.128;21.068;2023-08-20T02:25:11;17.93;;;14.23;;
5060;SDS011;2549;52.128;21.068;2023-08-20T02:27:38;23.63;;;15.00;;
5060;SDS011;2549;52.128;21.068;2023-08-20T02:30:05;19.97;;;15.40;;
5060;SDS011;2549;52.128;21.068;2023-08-20T02:32:33;18.87;;;16.40;;
5060;SDS011;2549;52.128;21.068;2023-08-20T02:35:00;24.60;;;17.70;;
5060;SDS011;2549;52.128;21.068;2023-08-20T02:37:27;21.40;;;16.57;;
5060;SDS011;2549;52.128;21.068;2023-08-20T02:39:53;20.00;;;16.00;;
5060;SDS011;2549;52.128;21.068;2023-08-20T02:42:20;18.90;;;14.80;;
5060;SDS011;2549;52.128;21.068;2023-08-20T02:44:47;19.20;;;16.20;;
5060;SDS011;2549;52.128;21.068;2023-08-20T02:47:14;17.93;;;16.13;;
5060;SDS011;2549;52.128;21.068;2023-08-20T02:49:41;22.97;;;17.07;;
5060;SDS011;2549;52.128;21.068;2023-08-20T02:52:08;21.70;;;16.20;;
5060;SDS011;2549;52.128;21.068;2023-08-20T02:54:34;17.20;;;15.50;;
5060;SDS011;2549;52.128;21.068;2023-08-20T02:57:01;23.10;;;15.70;;
5060;SDS011;2549;52.128;21.068;2023-08-20T02:59:28;19.03;;;15.80;;
5060;SDS011;2549;52.128;21.068;2023-08-20T03:01:55;18.83;;;16.83;;
5060;SDS011;2549;52.128;21.068;2023-08-20T03:04:22;17.43;;;15.60;;
5060;SDS011;2549;52.128;21.068;2023-08-20T03:06:49;17.20;;;15.40;;
5060;SDS011;2549;52.128;21.068;2023-08-20T03:09:16;24.17;;;16.20;;
5060;SDS011;2549;52.128;21.068;2023-08-20T03:11:43;22.73;;;14.00;;
5060;SDS011;2549;52.128;21.068;2023-08-20T03:14:09;17.67;;;13.97;;
5060;SDS011;2549;52.128;21.068;2023-08-20T03:16:36;18.57;;;14.40;;
5060;SDS011;2549;52.128;21.068;2023-08-20T03:19:03;18.23;;;15.40;;
5060;SDS011;2549;52.128;21.068;2023-08-20T03:21:30;16.47;;;14.30;;
5060;SDS011;2549;52.128;21.068;2023-08-20T03:23:57;17.97;;;15.10;;
5060;SDS011;2549;52.128;21.068;2023-08-20T03:26:24;20.43;;;14.83;;
5060;SDS011;2549;52.128;21.068;2023-08-20T03:28:51;21.67;;;14.20;;
5060;SDS011;2549;52.128;21.068;2023-08-20T03:31:18;17.50;;;14.20;;
5060;SDS011;2549;52.128;21.068;2023-08-20T03:33:45;15.97;;;14.20;;
5060;SDS011;2549;52.128;21.068;2023-08-20T03:36:12;18.57;;;14.20;;
5060;SDS011;2549;52.128;21.068;2023-08-20T03:38:38;16.60;;;14.47;;
5060;SDS011;2549;52.128;21.068;2023-08-20T03:41:05;20.40;;;13.40;;
5060;SDS011;2549;52.128;21.068;2023-08-20T03:43:32;17.40;;;14.47;;
5060;SDS011;2549;52.128;21.068;2023-08-20T03:45:59;20.23;;;13.40;;
5060;SDS011;2549;52.128;21.068;2023-08-20T03:48:27;17.90;;;13.83;;
5060;SDS011;2549;52.128;21.068;2023-08-20T03:50:54;23.53;;;13.93;;
5060;SDS011;2549;52.128;21.068;2023-08-20T03:53:22;19.43;;;13.13;;
5060;SDS011;2549;52.128;21.068;2023-08-20T03:55:49;18.77;;;13.40;;
5060;SDS011;2549;52.128;21.068;2023-08-20T03:58:16;23.33;;;15.43;;
5060;SDS011;2549;52.128;21.068;2023-08-20T04:00:43;20.83;;;13.77;;
5060;SDS011;2549;52.128;21.068;2023-08-20T04:03:10;19.20;;;14.30;;
5060;SDS011;2549;52.128;21.068;2023-08-20T04:05:38;16.17;;;14.57;;
5060;SDS011;2549;52.128;21.068;2023-08-20T04:08:06;17.20;;;14.33;;
5060;SDS011;2549;52.128;21.068;2023-08-20T04:10:33;16.37;;;13.50;;
5060;SDS011;2549;52.128;21.068;2023-08-20T04:13:00;15.63;;;14.00;;
5060;SDS011;2549;52.128;21.068;2023-08-20T04:15:27;24.50;;;14.87;;
5060;SDS011;2549;52.128;21.068;2023-08-20T04:17:54;22.00;;;14.50;;
5060;SDS011;2549;52.128;21.068;2023-08-20T04:20:21;16.80;;;13.40;;
5060;SDS011;2549;52.128;21.068;2023-08-20T04:22:49;21.53;;;14.60;;
5060;SDS011;2549;52.128;21.068;2023-08-20T04:25:16;21.63;;;13.70;;
5060;SDS011;2549;52.128;21.068;2023-08-20T04:27:43;15.03;;;13.30;;
5060;SDS011;2549;52.128;21.068;2023-08-20T04:30:10;27.70;;;14.47;;
5060;SDS011;2549;52.128;21.068;2023-08-20T04:32:37;22.07;;;14.00;;
5060;SDS011;2549;52.128;21.068;2023-08-20T04:35:04;19.03;;;14.87;;
5060;SDS011;2549;52.128;21.068;2023-08-20T04:37:32;17.73;;;13.33;;
5060;SDS011;2549;52.128;21.068;2023-08-20T04:39:59;16.10;;;13.63;;
5060;SDS011;2549;52.128;21.068;2023-08-20T04:42:26;15.07;;;13.57;;
5060;SDS011;2549;52.128;21.068;2023-08-20T04:44:53;18.63;;;14.00;;
5060;SDS011;2549;52.128;21.068;2023-08-20T04:47:20;20.83;;;13.90;;
5060;SDS011;2549;52.128;21.068;2023-08-20T04:49:47;18.00;;;13.20;;
5060;SDS011;2549;52.128;21.068;2023-08-20T04:52:14;20.43;;;13.33;;
5060;SDS011;2549;52.128;21.068;2023-08-20T04:54:40;18.53;;;13.17;;
5060;SDS011;2549;52.128;21.068;2023-08-20T04:57:10;27.50;;;12.60;;
5060;SDS011;2549;52.128;21.068;2023-08-20T04:59:37;16.03;;;12.87;;
5060;SDS011;2549;52.128;21.068;2023-08-20T05:02:03;17.63;;;14.43;;
5060;SDS011;2549;52.128;21.068;2023-08-20T05:04:31;18.13;;;13.53;;
5060;SDS011;2549;52.128;21.068;2023-08-20T05:06:58;16.80;;;13.40;;
5060;SDS011;2549;52.128;21.068;2023-08-20T05:09:25;14.50;;;13.00;;
5060;SDS011;2549;52.128;21.068;2023-08-20T05:11:52;16.80;;;12.90;;
5060;SDS011;2549;52.128;21.068;2023-08-20T05:14:18;16.77;;;12.83;;
5060;SDS011;2549;52.128;21.068;2023-08-20T05:16:45;13.50;;;12.20;;
5060;SDS011;2549;52.128;21.068;2023-08-20T05:19:12;14.60;;;13.03;;
5060;SDS011;2549;52.128;21.068;2023-08-20T05:21:39;17.23;;;12.70;;
5060;SDS011;2549;52.128;21.068;2023-08-20T05:24:06;14.90;;;13.37;;
5060;SDS011;2549;52.128;21.068;2023-08-20T05:26:34;15.70;;;13.63;;
5060;SDS011;2549;52.128;21.068;2023-08-20T05:29:01;20.70;;;14.57;;
5060;SDS011;2549;52.128;21.068;2023-08-20T05:31:27;18.93;;;14.17;;
5060;SDS011;2549;52.128;21.068;2023-08-20T05:33:54;18.43;;;14.67;;
5060;SDS011;2549;52.128;21.068;2023-08-20T05:36:22;15.10;;;13.57;;
5060;SDS011;2549;52.128;21.068;2023-08-20T05:38:49;17.60;;;14.40;;
5060;SDS011;2549;52.128;21.068;2023-08-20T05:41:16;14.47;;;13.00;;
5060;SDS011;2549;52.128;21.068;2023-08-20T05:43:43;18.17;;;14.27;;
5060;SDS011;2549;52.128;21.068;2023-08-20T05:46:10;13.63;;;12.20;;
5060;SDS011;2549;52.128;21.068;2023-08-20T05:48:37;15.40;;;13.80;;
5060;SDS011;2549;52.128;21.068;2023-08-20T05:51:04;17.63;;;15.87;;
5060;SDS011;2549;52.128;21.068;2023-08-20T05:53:30;15.30;;;13.70;;
5060;SDS011;2549;52.128;21.068;2023-08-20T05:55:57;17.10;;;15.00;;
5060;SDS011;2549;52.128;21.068;2023-08-20T05:58:24;23.10;;;15.20;;
5060;SDS011;2549;52.128;21.068;2023-08-20T06:00:51;19.73;;;15.77;;
5060;SDS011;2549;52.128;21.068;2023-08-20T06:03:18;23.50;;;15.97;;
5060;SDS011;2549;52.128;21.068;2023-08-20T06:05:45;20.70;;;15.23;;
5060;SDS011;2549;52.128;21.068;2023-08-20T06:08:11;17.23;;;14.67;;
5060;SDS011;2549;52.128;21.068;2023-08-20T06:10:38;20.60;;;14.97;;
5060;SDS011;2549;52.128;21.068;2023-08-20T06:13:05;14.20;;;12.80;;
5060;SDS011;2549;52.128;21.068;2023-08-20T06:15:32;15.53;;;14.03;;
5060;SDS011;2549;52.128;21.068;2023-08-20T06:17:59;17.23;;;14.70;;
5060;SDS011;2549;52.128;21.068;2023-08-20T06:20:26;16.73;;;15.03;;
5060;SDS011;2549;52.128;21.068;2023-08-20T06:22:52;17.70;;;15.50;;
5060;SDS011;2549;52.128;21.068;2023-08-20T06:25:19;23.30;;;14.70;;
5060;SDS011;2549;52.128;21.068;2023-08-20T06:27:46;20.73;;;15.50;;
5060;SDS011;2549;52.128;21.068;2023-08-20T06:30:13;21.20;;;15.93;;
5060;SDS011;2549;52.128;21.068;2023-08-20T06:32:40;17.23;;;15.40;;
5060;SDS011;2549;52.128;21.068;2023-08-20T06:35:08;18.30;;;14.97;;
5060;SDS011;2549;52.128;21.068;2023-08-20T06:37:36;15.67;;;13.97;;
5060;SDS011;2549;52.128;21.068;2023-08-20T06:40:05;17.50;;;14.20;;
5060;SDS011;2549;52.128;21.068;2023-08-20T06:42:32;21.50;;;15.60;;
5060;SDS011;2549;52.128;21.068;2023-08-20T06:44:59;17.63;;;15.83;;
5060;SDS011;2549;52.128;21.068;2023-08-20T06:47:26;24.27;;;15.57;;
5060;SDS011;2549;52.128;21.068;2023-08-20T06:49:53;16.07;;;14.23;;
5060;SDS011;2549;52.128;21.068;2023-08-20T06:52:20;16.97;;;14.27;;
5060;SDS011;2549;52.128;21.068;2023-08-20T06:54:47;16.57;;;14.97;;
5060;SDS011;2549;52.128;21.068;2023-08-20T06:57:13;16.93;;;15.13;;
5060;SDS011;2549;52.128;21.068;2023-08-20T06:59:40;16.37;;;14.73;;
5060;SDS011;2549;52.128;21.068;2023-08-20T07:02:09;21.03;;;14.10;;
5060;SDS011;2549;52.128;21.068;2023-08-20T07:04:36;20.17;;;14.90;;
5060;SDS011;2549;52.128;21.068;2023-08-20T07:07:03;16.20;;;13.50;;
5060;SDS011;2549;52.128;21.068;2023-08-20T07:09:34;16.60;;;14.90;;
5060;SDS011;2549;52.128;21.068;2023-08-20T07:12:01;17.10;;;13.33;;
5060;SDS011;2549;52.128;21.068;2023-08-20T07:14:28;16.63;;;14.80;;
5060;SDS011;2549;52.128;21.068;2023-08-20T07:16:55;15.47;;;12.80;;
5060;SDS011;2549;52.128;21.068;2023-08-20T07:19:22;15.90;;;14.23;;
5060;SDS011;2549;52.128;21.068;2023-08-20T07:21:48;17.80;;;15.33;;
5060;SDS011;2549;52.128;21.068;2023-08-20T07:24:15;16.60;;;14.20;;
5060;SDS011;2549;52.128;21.068;2023-08-20T07:26:42;19.20;;;14.33;;
5060;SDS011;2549;52.128;21.068;2023-08-20T07:29:10;13.97;;;12.40;;
5060;SDS011;2549;52.128;21.068;2023-08-20T07:31:37;22.63;;;13.90;;
5060;SDS011;2549;52.128;21.068;2023-08-20T07:34:03;16.93;;;14.00;;
5060;SDS011;2549;52.128;21.068;2023-08-20T07:36:31;21.47;;;15.07;;
5060;SDS011;2549;52.128;21.068;2023-08-20T07:38:59;17.13;;;14.37;;
5060;SDS011;2549;52.128;21.068;2023-08-20T07:41:27;13.63;;;12.30;;
5060;SDS011;2549;52.128;21.068;2023-08-20T07:43:54;15.87;;;14.17;;
5060;SDS011;2549;52.128;21.068;2023-08-20T07:46:21;18.47;;;13.67;;
5060;SDS011;2549;52.128;21.068;2023-08-20T07:48:48;14.40;;;12.80;;
5060;SDS011;2549;52.128;21.068;2023-08-20T07:51:15;17.43;;;14.00;;
5060;SDS011;2549;52.128;21.068;2023-08-20T07:53:42;16.90;;;14.00;;
5060;SDS011;2549;52.128;21.068;2023-08-20T07:56:08;14.70;;;13.30;;
5060;SDS011;2549;52.128;21.068;2023-08-20T07:58:35;14.73;;;13.10;;
5060;SDS011;2549;52.128;21.068;2023-08-20T08:01:02;14.37;;;12.90;;
5060;SDS011;2549;52.128;21.068;2023-08-20T08:03:29;15.93;;;13.30;;
5060;SDS011;2549;52.128;21.068;2023-08-20T08:05:56;18.97;;;11.50;;
5060;SDS011;2549;52.128;21.068;2023-08-20T08:08:23;13.83;;;12.53;;
5060;SDS011;2549;52.128;21.068;2023-08-20T08:10:50;14.33;;;12.87;;
5060;SDS011;2549;52.128;21.068;2023-08-20T08:13:21;18.13;;;13.10;;
5060;SDS011;2549;52.128;21.068;2023-08-20T08:15:48;13.83;;;12.43;;
5060;SDS011;2549;52.128;21.068;2023-08-20T08:18:16;12.50;;;11.30;;
5060;SDS011;2549;52.128;21.068;2023-08-20T08:20:44;13.43;;;12.00;;
5060;SDS011;2549;52.128;21.068;2023-08-20T08:23:11;14.57;;;12.90;;
5060;SDS011;2549;52.128;21.068;2023-08-20T08:25:38;11.67;;;10.47;;
5060;SDS011;2549;52.128;21.068;2023-08-20T08:28:06;17.90;;;10.90;;
5060;SDS011;2549;52.128;21.068;2023-08-20T08:30:33;12.47;;;10.80;;
5060;SDS011;2549;52.128;21.068;2023-08-20T08:33:00;10.63;;;9.57;;
5060;SDS011;2549;52.128;21.068;2023-08-20T08:35:27;15.00;;;11.47;;
5060;SDS011;2549;52.128;21.068;2023-08-20T08:37:53;11.53;;;10.43;;
5060;SDS011;2549;52.128;21.068;2023-08-20T08:40:21;14.97;;;9.70;;
5060;SDS011;2549;52.128;21.068;2023-08-20T08:42:48;11.13;;;10.03;;
5060;SDS011;2549;52.128;21.068;2023-08-20T08:45:19;10.80;;;9.90;;
5060;SDS011;2549;52.128;21.068;2023-08-20T08:47:46;13.10;;;10.10;;
5060;SDS011;2549;52.128;21.068;2023-08-20T08:50:15;14.47;;;10.60;;
5060;SDS011;2549;52.128;21.068;2023-08-20T08:52:42;13.10;;;10.60;;
5060;SDS011;2549;52.128;21.068;2023-08-20T08:55:12;11.97;;;10.83;;
5060;SDS011;2549;52.128;21.068;2023-08-20T08:57:39;12.40;;;10.90;;
5060;SDS011;2549;52.128;21.068;2023-08-20T09:00:06;12.57;;;10.60;;
5060;SDS011;2549;52.128;21.068;2023-08-20T09:02:33;10.40;;;9.40;;
5060;SDS011;2549;52.128;21.068;2023-08-20T09:05:00;16.07;;;11.00;;
5060;SDS011;2549;52.128;21.068;2023-08-20T09:07:27;12.37;;;11.00;;
5060;SDS011;2549;52.128;21.068;2023-08-20T09:09:57;10.77;;;9.67;;
5060;SDS011;2549;52.128;21.068;2023-08-20T09:12:27;10.27;;;9.23;;
5060;SDS011;2549;52.128;21.068;2023-08-20T09:14:55;14.73;;;10.20;;
5060;SDS011;2549;52.128;21.068;2023-08-20T09:17:26;10.57;;;9.47;;
5060;SDS011;2549;52.128;21.068;2023-08-20T09:19:55;12.13;;;10.97;;
5060;SDS011;2549;52.128;21.068;2023-08-20T09:22:23;10.17;;;9.27;;
5060;SDS011;2549;52.128;21.068;2023-08-20T09:24:54;10.77;;;8.97;;
5060;SDS011;2549;52.128;21.068;2023-08-20T09:27:23;11.17;;;10.07;;
5060;SDS011;2549;52.128;21.068;2023-08-20T09:29:54;9.93;;;9.03;;
5060;SDS011;2549;52.128;21.068;2023-08-20T09:32:22;13.57;;;9.40;;
5060;SDS011;2549;52.128;21.068;2023-08-20T09:34:51;10.27;;;9.33;;
5060;SDS011;2549;52.128;21.068;2023-08-20T09:37:20;10.53;;;9.57;;
5060;SDS011;2549;52.128;21.068;2023-08-20T09:39:48;11.40;;;9.30;;
5060;SDS011;2549;52.128;21.068;2023-08-20T09:42:15;15.00;;;9.67;;
5060;SDS011;2549;52.128;21.068;2023-08-20T09:44:44;13.83;;;9.60;;
5060;SDS011;2549;52.128;21.068;2023-08-20T09:47:15;10.83;;;9.00;;
5060;SDS011;2549;52.128;21.068;2023-08-20T09:49:44;10.13;;;9.27;;
5060;SDS011;2549;52.128;21.068;2023-08-20T09:52:16;9.33;;;8.40;;
5060;SDS011;2549;52.128;21.068;2023-08-20T09:55:00;10.33;;;9.33;;
5060;SDS011;2549;52.128;21.068;2023-08-20T09:57:40;12.80;;;10.00;;
5060;SDS011;2549;52.128;21.068;2023-08-20T10:00:11;10.50;;;9.50;;
5060;SDS011;2549;52.128;21.068;2023-08-20T10:02:39;9.00;;;8.23;;
5060;SDS011;2549;52.128;21.068;2023-08-20T10:05:08;9.70;;;8.80;;
5060;SDS011;2549;52.128;21.068;2023-08-20T10:07:36;9.87;;;8.70;;
5060;SDS011;2549;52.128;21.068;2023-08-20T10:10:04;12.50;;;9.33;;
5060;SDS011;2549;52.128;21.068;2023-08-20T10:12:33;9.63;;;8.73;;
5060;SDS011;2549;52.128;21.068;2023-08-20T10:15:01;14.00;;;8.33;;
5060;SDS011;2549;52.128;21.068;2023-08-20T10:17:32;10.40;;;9.40;;
5060;SDS011;2549;52.128;21.068;2023-08-20T10:20:01;10.43;;;9.20;;
5060;SDS011;2549;52.128;21.068;2023-08-20T10:22:43;9.47;;;8.67;;
5060;SDS011;2549;52.128;21.068;2023-08-20T10:25:24;10.00;;;9.00;;
5060;SDS011;2549;52.128;21.068;2023-08-20T10:27:52;8.63;;;7.83;;
5060;SDS011;2549;52.128;21.068;2023-08-20T10:30:23;10.13;;;9.13;;
5060;SDS011;2549;52.128;21.068;2023-08-20T10:32:52;9.53;;;8.73;;
5060;SDS011;2549;52.128;21.068;2023-08-20T10:35:27;9.97;;;8.03;;
5060;SDS011;2549;52.128;21.068;2023-08-20T10:38:02;9.23;;;7.77;;
5060;SDS011;2549;52.128;21.068;2023-08-20T10:48:35;9.97;;;8.93;;
5060;SDS011;2549;52.128;21.068;2023-08-20T10:51:08;9.47;;;8.60;;
5060;SDS011;2549;52.128;21.068;2023-08-20T10:54:04;8.93;;;8.13;;
5060;SDS011;2549;52.128;21.068;2023-08-20T10:56:41;8.70;;;7.90;;
5060;SDS011;2549;52.128;21.068;2023-08-20T10:59:09;9.80;;;8.87;;
5060;SDS011;2549;52.128;21.068;2023-08-20T11:01:43;9.27;;;8.43;;
5060;SDS011;2549;52.128;21.068;2023-08-20T11:04:13;9.67;;;8.67;;
5060;SDS011;2549;52.128;21.068;2023-08-20T11:06:42;9.33;;;8.43;;
5060;SDS011;2549;52.128;21.068;2023-08-20T11:09:10;10.10;;;9.20;;
5060;SDS011;2549;52.128;21.068;2023-08-20T11:11:41;9.57;;;8.57;;
5060;SDS011;2549;52.128;21.068;2023-08-20T11:14:12;11.20;;;8.90;;
5060;SDS011;2549;52.128;21.068;2023-08-20T11:16:43;9.43;;;8.63;;
5060;SDS011;2549;52.128;21.068;2023-08-20T11:19:11;10.57;;;9.47;;
5060;SDS011;2549;52.128;21.068;2023-08-20T11:21:40;12.87;;;7.70;;
5060;SDS011;2549;52.128;21.068;2023-08-20T11:24:08;12.03;;;9.10;;
5060;SDS011;2549;52.128;21.068;2023-08-20T11:26:38;9.83;;;8.90;;
5060;SDS011;2549;52.128;21.068;2023-08-20T11:29:08;11.27;;;8.40;;
5060;SDS011;2549;52.128;21.068;2023-08-20T11:31:36;9.23;;;8.53;;
5060;SDS011;2549;52.128;21.068;2023-08-20T11:34:04;9.03;;;8.23;;
5060;SDS011;2549;52.128;21.068;2023-08-20T11:36:32;9.67;;;8.70;;
5060;SDS011;2549;52.128;21.068;2023-08-20T11:38:59;9.73;;;8.90;;
5060;SDS011;2549;52.128;21.068;2023-08-20T11:41:26;9.73;;;8.03;;
5060;SDS011;2549;52.128;21.068;2023-08-20T11:43:53;9.63;;;8.57;;
5060;SDS011;2549;52.128;21.068;2023-08-20T11:46:21;9.53;;;8.73;;
5060;SDS011;2549;52.128;21.068;2023-08-20T11:49:08;8.80;;;8.00;;
5060;SDS011;2549;52.128;21.068;2023-08-20T11:54:07;9.50;;;8.50;;
5060;SDS011;2549;52.128;21.068;2023-08-20T11:56:47;9.20;;;8.30;;
5060;SDS011;2549;52.128;21.068;2023-08-20T11:59:17;9.07;;;8.17;;
5060;SDS011;2549;52.128;21.068;2023-08-20T12:01:50;8.67;;;7.73;;
5060;SDS011;2549;52.128;21.068;2023-08-20T12:04:18;9.13;;;8.33;;
5060;SDS011;2549;52.128;21.068;2023-08-20T12:06:45;11.57;;;9.20;;
5060;SDS011;2549;52.128;21.068;2023-08-20T12:09:40;10.43;;;9.40;;
5060;SDS011;2549;52.128;21.068;2023-08-20T12:12:09;11.60;;;9.07;;
5060;SDS011;2549;52.128;21.068;2023-08-20T12:14:36;10.00;;;9.00;;
5060;SDS011;2549;52.128;21.068;2023-08-20T12:17:03;10.50;;;9.50;;
5060;SDS011;2549;52.128;21.068;2023-08-20T12:19:30;9.30;;;7.80;;
5060;SDS011;2549;52.128;21.068;2023-08-20T12:21:57;10.27;;;9.20;;
5060;SDS011;2549;52.128;21.068;2023-08-20T12:24:24;8.83;;;8.03;;
5060;SDS011;2549;52.128;21.068;2023-08-20T12:26:52;9.23;;;8.43;;
5060;SDS011;2549;52.128;21.068;2023-08-20T12:29:19;9.33;;;8.43;;
5060;SDS011;2549;52.128;21.068;2023-08-20T12:31:46;11.23;;;8.70;;
5060;SDS011;2549;52.128;21.068;2023-08-20T12:34:13;9.63;;;8.83;;
5060;SDS011;2549;52.128;21.068;2023-08-20T12:36:40;10.53;;;8.37;;
5060;SDS011;2549;52.128;21.068;2023-08-20T12:39:07;11.27;;;9.57;;
5060;SDS011;2549;52.128;21.068;2023-08-20T12:41:34;9.33;;;8.43;;
5060;SDS011;2549;52.128;21.068;2023-08-20T12:44:04;9.13;;;8.40;;
5060;SDS011;2549;52.128;21.068;2023-08-20T12:46:32;8.97;;;8.27;;
5060;SDS011;2549;52.128;21.068;2023-08-20T12:48:59;9.57;;;8.73;;
5060;SDS011;2549;52.128;21.068;2023-08-20T12:51:26;12.27;;;9.80;;
5060;SDS011;2549;52.128;21.068;2023-08-20T12:53:53;10.43;;;9.33;;
5060;SDS011;2549;52.128;21.068;2023-08-20T12:56:20;11.00;;;9.90;;
5060;SDS011;2549;52.128;21.068;2023-08-20T12:58:47;9.07;;;8.27;;
5060;SDS011;2549;52.128;21.068;2023-08-20T13:01:14;10.90;;;9.83;;
5060;SDS011;2549;52.128;21.068;2023-08-20T13:03:41;9.87;;;8.80;;
5060;SDS011;2549;52.128;21.068;2023-08-20T13:06:08;9.77;;;8.87;;
5060;SDS011;2549;52.128;21.068;2023-08-20T13:08:35;9.37;;;8.43;;
5060;SDS011;2549;52.128;21.068;2023-08-20T13:11:02;9.13;;;8.30;;
5060;SDS011;2549;52.128;21.068;2023-08-20T13:13:32;10.10;;;9.10;;
5060;SDS011;2549;52.128;21.068;2023-08-20T13:16:00;10.90;;;8.47;;
5060;SDS011;2549;52.128;21.068;2023-08-20T13:18:29;11.23;;;10.07;;
5060;SDS011;2549;52.128;21.068;2023-08-20T13:20:56;9.33;;;8.37;;
5060;SDS011;2549;52.128;21.068;2023-08-20T13:23:23;12.67;;;9.00;;
5060;SDS011;2549;52.128;21.068;2023-08-20T13:25:50;9.53;;;8.73;;
5060;SDS011;2549;52.128;21.068;2023-08-20T13:28:17;9.47;;;8.67;;
5060;SDS011;2549;52.128;21.068;2023-08-20T13:30:44;10.77;;;9.40;;
5060;SDS011;2549;52.128;21.068;2023-08-20T13:33:12;10.17;;;9.17;;
5060;SDS011;2549;52.128;21.068;2023-08-20T13:35:40;9.97;;;9.03;;
5060;SDS011;2549;52.128;21.068;2023-08-20T13:38:08;9.93;;;9.00;;
5060;SDS011;2549;52.128;21.068;2023-08-20T13:40:35;9.73;;;8.87;;
5060;SDS011;2549;52.128;21.068;2023-08-20T13:43:02;10.37;;;9.40;;
5060;SDS011;2549;52.128;21.068;2023-08-20T13:45:29;10.37;;;8.47;;
5060;SDS011;2549;52.128;21.068;2023-08-20T13:47:57;10.50;;;9.60;;
5060;SDS011;2549;52.128;21.068;2023-08-20T13:50:24;9.87;;;8.93;;
5060;SDS011;2549;52.128;21.068;2023-08-20T13:52:51;9.50;;;8.60;;
5060;SDS011;2549;52.128;21.068;2023-08-20T13:55:18;9.63;;;8.80;;
5060;SDS011;2549;52.128;21.068;2023-08-20T13:57:45;10.57;;;9.57;;
5060;SDS011;2549;52.128;21.068;2023-08-20T14:00:12;9.90;;;9.00;;
5060;SDS011;2549;52.128;21.068;2023-08-20T14:02:39;9.77;;;8.60;;
5060;SDS011;2549;52.128;21.068;2023-08-20T14:05:06;14.30;;;9.20;;
5060;SDS011;2549;52.128;21.068;2023-08-20T14:07:34;10.77;;;9.60;;
5060;SDS011;2549;52.128;21.068;2023-08-20T14:10:01;11.37;;;10.33;;
5060;SDS011;2549;52.128;21.068;2023-08-20T14:12:30;14.60;;;9.00;;
5060;SDS011;2549;52.128;21.068;2023-08-20T14:14:57;10.10;;;9.13;;
5060;SDS011;2549;52.128;21.068;2023-08-20T14:17:24;10.80;;;9.80;;
5060;SDS011;2549;52.128;21.068;2023-08-20T14:19:52;9.70;;;8.83;;
5060;SDS011;2549;52.128;21.068;2023-08-20T14:22:18;11.43;;;8.97;;
5060;SDS011;2549;52.128;21.068;2023-08-20T14:24:45;11.47;;;9.93;;
5060;SDS011;2549;52.128;21.068;2023-08-20T14:27:13;10.80;;;9.83;;
5060;SDS011;2549;52.128;21.068;2023-08-20T14:29:40;9.97;;;8.67;;
5060;SDS011;2549;52.128;21.068;2023-08-20T14:32:07;11.73;;;9.93;;
5060;SDS011;2549;52.128;21.068;2023-08-20T14:34:34;10.90;;;9.00;;
5060;SDS011;2549;52.128;21.068;2023-08-20T14:37:01;13.20;;;9.77;;
5060;SDS011;2549;52.128;21.068;2023-08-20T14:39:29;10.07;;;9.27;;
5060;SDS011;2549;52.128;21.068;2023-08-20T14:41:58;10.57;;;9.57;;
5060;SDS011;2549;52.128;21.068;2023-08-20T14:44:25;12.97;;;9.00;;
5060;SDS011;2549;52.128;21.068;2023-08-20T14:46:52;10.17;;;8.43;;
5060;SDS011;2549;52.128;21.068;2023-08-20T14:49:18;10.47;;;9.57;;
5060;SDS011;2549;52.128;21.068;2023-08-20T14:51:45;12.50;;;9.50;;
5060;SDS011;2549;52.128;21.068;2023-08-20T14:54:13;14.43;;;9.40;;
5060;SDS011;2549;52.128;21.068;2023-08-20T14:56:40;8.70;;;8.00;;
5060;SDS011;2549;52.128;21.068;2023-08-20T14:59:07;11.37;;;8.30;;
5060;SDS011;2549;52.128;21.068;2023-08-20T15:01:36;10.37;;;9.37;;
5060;SDS011;2549;52.128;21.068;2023-08-20T15:04:03;9.07;;;8.20;;
5060;SDS011;2549;52.128;21.068;2023-08-20T15:06:30;9.67;;;8.67;;